Time;durP1;ratioP1;P1;durP2;ratioP2;P2;SDS_P1;SDS_P2;PMS_P1;PMS_P2;Temp;Humidity;BMP_temperature;BMP_pressure;BME280_temperature;BME280_humidity;BME280_pressure;Samples;Min_cycle;Max_cycle;Signal;HPM_P1;HPM_P2
2021/04/15 00:00:32;;;;;;;27.38;19.35;;;;;;;-145.19;100.00;59999.88;5027582;28;20576;-68
2021/04/15 00:03:00;;;;;;;23.52;16.77;;;;;;;-145.19;100.00;59999.88;5030293;28;20096;-68
2021/04/15 00:05:29;;;;;;;26.00;19.77;;;;;;;-145.19;100.00;59999.88;5024320;28;20124;-68
2021/04/15 00:07:57;;;;;;;24.88;18.05;;;;;;;-145.19;100.00;59999.88;5027213;28;20073;-67
2021/04/15 00:10:35;;;;;;;27.13;18.92;;;;;;;-145.19;100.00;59999.88;5029502;28;20467;-67
2021/04/15 00:13:03;;;;;;;;;;;;;;;-145.19;100.00;59999.88;5028539;28;20056;-68
2021/04/15 00:15:29;;;;;;;30.00;21.00;;;;;;;-145.19;100.00;59999.88;5028204;28;19963;-68
2021/04/15 00:17:56;;;;;;;26.85;19.40;;;;;;;-145.19;100.00;59999.88;5028717;28;20464;-68
2021/04/15 00:20:23;;;;;;;29.10;20.38;;;;;;;-145.19;100.00;59999.88;5030085;28;20045;-68
2021/04/15 00:22:49;;;;;;;28.30;18.77;;;;;;;-145.19;100.00;59999.88;5029088;28;20145;-68
2021/04/15 00:25:15;;;;;;;32.78;20.73;;;;;;;-145.19;100.00;59999.88;5026218;28;20148;-68
2021/04/15 00:27:41;;;;;;;34.20;22.13;;;;;;;-145.19;100.00;59999.88;5029932;28;20135;-67
2021/04/15 00:30:09;;;;;;;30.50;20.00;;;;;;;-145.19;100.00;59999.88;5030114;28;20559;-68
2021/04/15 00:32:36;;;;;;;30.27;20.10;;;;;;;-145.19;100.00;59999.88;5026298;28;20133;-68
2021/04/15 00:35:02;;;;;;;23.77;16.42;;;;;;;-145.19;100.00;59999.88;5028689;28;20041;-69
2021/04/15 00:37:29;;;;;;;30.08;21.63;;;;;;;-145.19;100.00;59999.88;5029813;28;20033;-68
2021/04/15 00:39:55;;;;;;;25.83;19.20;;;;;;;-145.19;100.00;59999.88;5029133;28;20055;-68
2021/04/15 00:42:21;;;;;;;24.60;18.45;;;;;;;-145.19;100.00;59999.88;5028601;28;20038;-67
2021/04/15 00:44:48;;;;;;;28.05;20.33;;;;;;;-145.19;100.00;59999.88;5028761;28;20585;-68
2021/04/15 00:47:23;;;;;;;29.33;19.15;;;;;;;-145.19;100.00;59999.88;5027591;28;20042;-68
2021/04/15 00:49:56;;;;;;;27.65;20.27;;;;;;;-145.19;100.00;59999.88;5029979;28;20087;-68
2021/04/15 00:52:25;;;;;;;31.83;22.92;;;;;;;-145.19;100.00;59999.88;5028524;28;20042;-68
2021/04/15 00:54:59;;;;;;;32.15;23.27;;;;;;;-145.19;100.00;59999.88;5028851;28;20053;-68
2021/04/15 00:57:27;;;;;;;37.53;24.70;;;;;;;-145.19;100.00;59999.88;5028921;28;20068;-69
2021/04/15 00:59:55;;;;;;;31.35;21.65;;;;;;;-145.19;100.00;59999.88;5027107;28;20137;-68
2021/04/15 01:02:23;;;;;;;29.45;18.42;;;;;;;-145.19;100.00;59999.88;5029952;28;20056;-68
2021/04/15 01:04:56;;;;;;;34.10;23.13;;;;;;;-145.19;100.00;59999.88;5028794;28;20049;-67
2021/04/15 01:07:23;;;;;;;32.08;21.85;;;;;;;-145.19;100.00;59999.88;5027395;28;20073;-67
2021/04/15 01:09:50;;;;;;;26.75;19.52;;;;;;;-145.19;100.00;59999.88;5027150;28;20057;-68
2021/04/15 01:12:44;;;;;;;29.55;20.38;;;;;;;-145.19;100.00;59999.88;5028680;28;20386;-68
2021/04/15 01:15:21;;;;;;;31.60;23.27;;;;;;;-145.19;100.00;59999.88;5026239;28;20050;-67
2021/04/15 01:17:58;;;;;;;35.58;24.05;;;;;;;-145.19;100.00;59999.88;5024827;28;20049;-68
2021/04/15 01:20:56;;;;;;;31.38;22.17;;;;;;;-145.19;100.00;59999.88;5026288;28;20390;-68
2021/04/15 01:23:51;;;;;;;30.67;21.48;;;;;;;-145.19;100.00;59999.88;5021924;28;20072;-68
2021/04/15 01:26:39;;;;;;;28.45;18.45;;;;;;;-145.19;100.00;59999.88;5026917;28;20400;-68
2021/04/15 01:29:08;;;;;;;25.35;18.20;;;;;;;-145.19;100.00;59999.88;5028947;28;20034;-67
2021/04/15 01:31:59;;;;;;;31.30;22.65;;;;;;;-145.19;100.00;59999.88;5032630;28;20109;-68
2021/04/15 01:34:48;;;;;;;30.20;20.40;;;;;;;-145.19;100.00;59999.88;5032652;28;20500;-67
2021/04/15 01:37:33;;;;;;;35.20;24.17;;;;;;;-145.19;100.00;59999.88;5030668;28;20076;-68
2021/04/15 01:40:37;;;;;;;40.30;26.10;;;;;;;-145.19;100.00;59999.88;5030196;28;20052;-67
2021/04/15 01:43:14;;;;;;;30.40;20.02;;;;;;;-145.19;100.00;59999.88;5030251;28;20744;-67
2021/04/15 01:45:44;;;;;;;28.33;19.58;;;;;;;-145.19;100.00;59999.88;5025658;28;20120;-67
2021/04/15 01:48:16;;;;;;;27.85;20.42;;;;;;;-145.19;100.00;59999.88;5030229;28;20448;-67
2021/04/15 01:50:53;;;;;;;34.60;20.75;;;;;;;-145.19;100.00;59999.88;5026801;28;20041;-67
2021/04/15 01:53:24;;;;;;;30.45;20.08;;;;;;;-145.19;100.00;59999.88;5030810;28;20079;-67
2021/04/15 01:55:57;;;;;;;27.88;20.63;;;;;;;-145.19;100.00;59999.88;5029562;28;20524;-68
2021/04/15 01:58:30;;;;;;;33.38;21.73;;;;;;;-145.19;100.00;59999.88;5026999;28;20071;-67
2021/04/15 02:01:01;;;;;;;41.47;27.55;;;;;;;-145.19;100.00;59999.88;5031100;28;20072;-68
2021/04/15 02:03:32;;;;;;;30.73;21.73;;;;;;;-145.19;100.00;59999.88;5029377;28;20033;-68
2021/04/15 02:06:03;;;;;;;32.38;20.83;;;;;;;-145.19;100.00;59999.88;5026674;28;20068;-68
2021/04/15 02:08:33;;;;;;;29.02;20.42;;;;;;;-145.19;100.00;59999.88;5029756;28;20393;-68
2021/04/15 02:11:16;;;;;;;25.05;18.65;;;;;;;-145.19;100.00;59999.88;5028534;28;20049;-67
2021/04/15 02:13:46;;;;;;;35.63;23.58;;;;;;;-145.19;100.00;59999.88;5029860;28;20504;-68
2021/04/15 02:16:16;;;;;;;30.13;21.05;;;;;;;-145.19;100.00;59999.88;5030965;28;20100;-67
2021/04/15 02:18:58;;;;;;;38.17;26.17;;;;;;;-145.19;100.00;59999.88;5031675;28;20549;-67
2021/04/15 02:21:38;;;;;;;31.25;20.52;;;;;;;-145.19;100.00;59999.88;5031125;28;20485;-67
2021/04/15 02:24:14;;;;;;;28.90;20.25;;;;;;;-145.19;100.00;59999.88;5045281;28;20667;-68
2021/04/15 02:26:42;;;;;;;30.48;21.35;;;;;;;-145.19;100.00;59999.88;5031716;28;20037;-68
2021/04/15 02:29:16;;;;;;;;;;;;;;;-145.19;100.00;59999.88;5030742;28;20037;-68
2021/04/15 02:31:56;;;;;;;27.30;19.00;;;;;;;-145.19;100.00;59999.88;5028915;28;19929;-68
2021/04/15 02:34:34;;;;;;;28.15;19.38;;;;;;;-145.19;100.00;59999.88;5030844;28;20061;-68
2021/04/15 02:37:14;;;;;;;30.45;19.33;;;;;;;-145.19;100.00;59999.88;5032046;28;20132;-67
2021/04/15 02:39:44;;;;;;;28.15;20.13;;;;;;;-145.19;100.00;59999.88;5028965;28;20128;-68
2021/04/15 02:42:23;;;;;;;32.05;21.95;;;;;;;-145.19;100.00;59999.88;5030380;28;20073;-67
2021/04/15 02:44:54;;;;;;;33.95;21.80;;;;;;;-145.19;100.00;59999.88;5029125;28;20042;-68
2021/04/15 02:47:42;;;;;;;41.97;25.67;;;;;;;-145.19;100.00;59999.88;5028230;28;20045;-67
2021/04/15 02:50:13;;;;;;;30.90;22.23;;;;;;;-145.19;100.00;59999.88;5031313;28;20059;-68
2021/04/15 02:52:43;;;;;;;35.22;24.08;;;;;;;-145.19;100.00;59999.88;5031569;28;20046;-68
2021/04/15 02:55:22;;;;;;;28.70;21.27;;;;;;;-145.19;100.00;59999.88;5028053;28;20049;-68
2021/04/15 02:58:28;;;;;;;36.95;24.00;;;;;;;-145.19;100.00;59999.88;5027390;28;20055;-68
2021/04/15 03:00:55;;;;;;;31.58;22.95;;;;;;;-145.19;100.00;59999.88;5029128;28;20544;-68
2021/04/15 03:03:27;;;;;;;30.80;19.40;;;;;;;-145.19;100.00;59999.88;5026471;28;20045;-68
2021/04/15 03:06:13;;;;;;;41.88;25.58;;;;;;;-145.19;100.00;59999.88;5030990;28;20049;-67
2021/04/15 03:08:41;;;;;;;35.35;23.35;;;;;;;-145.19;100.00;59999.88;5029597;28;20060;-68
2021/04/15 03:11:24;;;;;;;37.33;25.02;;;;;;;-145.19;100.00;59999.88;5030492;28;20125;-68
2021/04/15 03:13:56;;;;;;;36.15;25.92;;;;;;;-145.19;100.00;59999.88;5026497;28;20064;-68
2021/04/15 03:16:32;;;;;;;37.03;25.23;;;;;;;-145.19;100.00;59999.88;5030205;28;20065;-68
2021/04/15 03:19:03;;;;;;;31.40;21.48;;;;;;;-145.19;100.00;59999.88;5023977;28;20080;-68
2021/04/15 03:21:45;;;;;;;30.05;21.17;;;;;;;-145.19;100.00;59999.88;5029836;28;20041;-68
2021/04/15 03:24:15;;;;;;;32.67;23.13;;;;;;;-145.19;100.00;59999.88;5030320;28;20048;-67
2021/04/15 03:26:54;;;;;;;33.38;23.58;;;;;;;-145.19;100.00;59999.88;5029834;28;20140;-68
2021/04/15 03:29:28;;;;;;;34.33;24.08;;;;;;;-145.19;100.00;59999.88;5029906;28;20047;-68
2021/04/15 03:32:16;;;;;;;40.42;26.50;;;;;;;-145.19;100.00;59999.88;5031032;28;20496;-68
2021/04/15 03:34:57;;;;;;;30.98;21.65;;;;;;;-145.19;100.00;59999.88;5028980;28;20121;-68
2021/04/15 03:37:33;;;;;;;32.35;23.85;;;;;;;-145.19;100.00;59999.88;5028263;28;20489;-68
2021/04/15 03:40:01;;;;;;;38.92;25.83;;;;;;;-145.19;100.00;59999.88;5031057;28;20080;-68
2021/04/15 03:42:37;;;;;;;33.15;23.67;;;;;;;-145.19;100.00;59999.88;5029169;28;20049;-68
2021/04/15 03:45:08;;;;;;;35.20;24.02;;;;;;;-145.19;100.00;59999.88;5028531;28;20099;-68
2021/04/15 03:47:40;;;;;;;31.08;21.65;;;;;;;-145.19;100.00;59999.88;5030714;28;20041;-68
2021/04/15 03:50:10;;;;;;;37.35;24.48;;;;;;;-145.19;100.00;59999.88;5009684;28;20033;-67
2021/04/15 03:52:42;;;;;;;44.22;26.35;;;;;;;-145.19;100.00;59999.88;5031311;28;20124;-68
2021/04/15 03:55:19;;;;;;;36.17;24.63;;;;;;;-145.19;100.00;59999.88;5030427;28;20109;-67
2021/04/15 03:57:47;;;;;;;38.55;25.10;;;;;;;-145.19;100.00;59999.88;5028821;28;20045;-68
2021/04/15 04:00:19;;;;;;;33.50;23.50;;;;;;;-145.19;100.00;59999.88;5030019;28;20112;-68
2021/04/15 04:02:55;;;;;;;42.60;29.02;;;;;;;-145.19;100.00;59999.88;5028253;28;20042;-68
2021/04/15 04:05:28;;;;;;;43.03;27.77;;;;;;;-145.19;100.00;59999.88;5027243;28;20041;-68
2021/04/15 04:07:59;;;;;;;33.25;23.70;;;;;;;-145.19;100.00;59999.88;5028773;28;20040;-68
2021/04/15 04:10:55;;;;;;;46.05;28.42;;;;;;;-145.19;100.00;59999.88;5029135;28;20061;-68
2021/04/15 04:13:35;;;;;;;34.30;24.00;;;;;;;-145.19;100.00;59999.88;5025781;28;20068;-68
2021/04/15 04:16:20;;;;;;;41.53;26.60;;;;;;;-145.19;100.00;59999.88;5029135;28;20045;-68
2021/04/15 04:18:57;;;;;;;27.00;18.55;;;;;;;-145.19;100.00;59999.88;5029695;28;20091;-68
2021/04/15 04:22:01;;;;;;;33.70;23.00;;;;;;;-145.19;100.00;59999.88;5026620;28;20076;-68
2021/04/15 04:24:38;;;;;;;29.45;20.33;;;;;;;-145.19;100.00;59999.88;5025347;28;20504;-68
2021/04/15 04:27:17;;;;;;;32.08;22.30;;;;;;;-145.19;100.00;59999.88;5029465;28;21409;-68
2021/04/15 04:29:55;;;;;;;35.55;22.63;;;;;;;-145.19;100.00;59999.88;5027230;28;20124;-68
2021/04/15 04:32:23;;;;;;;35.30;23.58;;;;;;;-145.19;100.00;59999.88;5026115;28;20041;-68
2021/04/15 04:34:54;;;;;;;30.08;20.63;;;;;;;-145.19;100.00;59999.88;5028708;28;20483;-68
2021/04/15 04:37:22;;;;;;;34.22;21.30;;;;;;;-145.19;100.00;59999.88;5026674;28;20041;-68
2021/04/15 04:39:49;;;;;;;43.40;25.90;;;;;;;-145.19;100.00;59999.88;5029697;28;20037;-67
2021/04/15 04:42:39;;;;;;;29.08;21.58;;;;;;;-145.19;100.00;59999.88;5028860;28;20104;-69
2021/04/15 04:45:08;;;;;;;39.92;19.95;;;;;;;-145.19;100.00;59999.88;5026906;28;20049;-68
2021/04/15 04:47:44;;;;;;;29.05;19.73;;;;;;;-145.19;100.00;59999.88;5029040;28;20050;-68
2021/04/15 04:50:48;;;;;;;27.50;19.50;;;;;;;-145.19;100.00;59999.88;5030770;28;20042;-68
2021/04/15 04:53:28;;;;;;;44.15;26.05;;;;;;;-145.19;100.00;59999.88;5026947;28;20152;-69
2021/04/15 04:56:13;;;;;;;34.10;22.98;;;;;;;-145.19;100.00;59999.88;5027213;28;20056;-67
2021/04/15 04:58:40;;;;;;;36.78;23.13;;;;;;;-145.19;100.00;59999.88;5023415;28;20446;-68
2021/04/15 05:01:07;;;;;;;29.05;20.77;;;;;;;-145.19;100.00;59999.88;5028270;28;20052;-68
2021/04/15 05:03:33;;;;;;;26.65;18.05;;;;;;;-145.19;100.00;59999.88;5034405;28;20065;-68
2021/04/15 05:06:10;;;;;;;48.25;30.27;;;;;;;-145.19;100.00;59999.88;5030446;28;20072;-68
2021/04/15 05:08:52;;;;;;;47.40;29.25;;;;;;;-145.19;100.00;59999.88;5028932;28;20045;-68
2021/04/15 05:11:18;;;;;;;38.25;21.75;;;;;;;-145.19;100.00;59999.88;5029571;28;20133;-67
2021/04/15 05:13:46;;;;;;;33.63;21.70;;;;;;;-145.19;100.00;59999.88;5033907;28;20088;-69
2021/04/15 05:16:12;;;;;;;36.97;23.20;;;;;;;-145.19;100.00;59999.88;5034430;28;20072;-68
2021/04/15 05:18:39;;;;;;;27.50;19.35;;;;;;;-145.19;100.00;59999.88;5033910;28;20041;-71
2021/04/15 05:21:18;;;;;;;30.97;17.70;;;;;;;-145.19;100.00;59999.88;5035016;28;20049;-68
2021/04/15 05:23:55;;;;;;;27.10;17.50;;;;;;;-145.19;100.00;59999.88;5032879;28;20517;-69
2021/04/15 05:26:24;;;;;;;40.38;22.02;;;;;;;-145.19;100.00;59999.88;5034547;28;20053;-70
2021/04/15 05:28:53;;;;;;;86.10;40.88;;;;;;;-145.19;100.00;59999.88;5033367;28;20462;-67
2021/04/15 05:31:22;;;;;;;58.78;29.52;;;;;;;-145.19;100.00;59999.88;5034650;28;20052;-70
2021/04/15 05:33:50;;;;;;;52.42;27.63;;;;;;;-145.19;100.00;59999.88;5032329;28;20129;-70
2021/04/15 05:36:35;;;;;;;42.42;23.05;;;;;;;-145.19;100.00;59999.88;5025512;28;20037;-68
2021/04/15 05:39:09;;;;;;;33.38;19.80;;;;;;;-145.19;100.00;59999.88;5034034;28;20048;-69
2021/04/15 05:41:46;;;;;;;32.72;21.30;;;;;;;-145.19;100.00;59999.88;5032825;28;20520;-68
2021/04/15 05:44:33;;;;;;;28.70;18.27;;;;;;;-145.19;100.00;59999.88;5031054;28;20045;-68
2021/04/15 05:47:02;;;;;;;24.92;14.07;;;;;;;-145.19;100.00;59999.88;5028556;28;20714;-69
2021/04/15 05:49:37;;;;;;;20.92;13.98;;;;;;;-145.19;100.00;59999.88;5026517;28;20117;-68
2021/04/15 05:52:20;;;;;;;17.42;12.30;;;;;;;-145.19;100.00;59999.88;5047065;28;20072;-68
2021/04/15 05:54:47;;;;;;;22.02;15.18;;;;;;;-145.19;100.00;59999.88;5030404;28;20049;-68
2021/04/15 05:57:17;;;;;;;18.88;13.10;;;;;;;-145.19;100.00;59999.88;5027571;28;20049;-68
2021/04/15 05:59:52;;;;;;;14.48;11.13;;;;;;;-145.19;100.00;59999.88;5032278;28;20471;-68
2021/04/15 06:02:27;;;;;;;17.80;11.98;;;;;;;-145.19;100.00;59999.88;5030490;28;20033;-69
2021/04/15 06:05:22;;;;;;;21.73;12.07;;;;;;;-145.19;100.00;59999.88;5027955;28;20378;-68
2021/04/15 06:07:52;;;;;;;16.30;11.05;;;;;;;-145.19;100.00;59999.88;5032051;28;20038;-68
2021/04/15 06:10:29;;;;;;;18.80;11.02;;;;;;;-145.19;100.00;59999.88;5028630;28;20077;-68
2021/04/15 06:13:28;;;;;;;19.20;11.15;;;;;;;-145.19;100.00;59999.88;5028129;28;20473;-69
2021/04/15 06:16:21;;;;;;;19.77;11.25;;;;;;;-145.19;100.00;59999.88;5029785;28;20916;-71
2021/04/15 06:18:59;;;;;;;19.48;10.55;;;;;;;-145.19;100.00;59999.88;5025801;28;20452;-72
2021/04/15 06:21:29;;;;;;;17.70;11.27;;;;;;;-145.19;100.00;59999.88;5029091;28;20120;-70
2021/04/15 06:24:14;;;;;;;17.20;10.77;;;;;;;-145.19;100.00;59999.88;5030504;28;20439;-69
2021/04/15 06:26:50;;;;;;;20.48;12.68;;;;;;;-145.19;100.00;59999.88;5028105;28;20060;-69
2021/04/15 06:29:29;;;;;;;16.27;10.05;;;;;;;-145.19;100.00;59999.88;5027505;28;20130;-69
2021/04/15 06:31:57;;;;;;;21.95;11.90;;;;;;;-145.19;100.00;59999.88;5031330;28;20084;-69
2021/04/15 06:34:25;;;;;;;12.35;9.65;;;;;;;-145.19;100.00;59999.88;5028941;28;20048;-69
2021/04/15 06:36:58;;;;;;;;;;;;;;;-145.19;100.00;59999.88;5023490;28;20135;-69
2021/04/15 06:39:34;;;;;;;16.17;10.25;;;;;;;-145.19;100.00;59999.88;5030814;28;20012;-68
2021/04/15 06:42:28;;;;;;;15.98;10.55;;;;;;;-145.19;100.00;59999.88;5025965;28;20045;-68
2021/04/15 06:45:09;;;;;;;19.30;10.95;;;;;;;-145.19;100.00;59999.88;5030179;28;20474;-68
2021/04/15 06:47:59;;;;;;;22.50;10.45;;;;;;;-145.19;100.00;59999.88;5023099;28;20037;-68
2021/04/15 06:50:32;;;;;;;18.55;11.32;;;;;;;-145.19;100.00;59999.88;5027841;28;20574;-68
2021/04/15 06:53:13;;;;;;;15.70;11.07;;;;;;;-145.19;100.00;59999.88;5029220;28;20125;-68
2021/04/15 06:55:49;;;;;;;15.43;10.13;;;;;;;-145.19;100.00;59999.88;5031852;28;20073;-67
2021/04/15 06:58:32;;;;;;;19.27;11.05;;;;;;;-145.19;100.00;59999.88;5025977;28;20057;-68
2021/04/15 07:01:11;;;;;;;15.85;10.05;;;;;;;-145.19;100.00;59999.88;5027904;28;20481;-68
2021/04/15 07:04:11;;;;;;;13.95;9.20;;;;;;;-145.19;100.00;59999.88;5030398;28;20037;-69
2021/04/15 07:07:02;;;;;;;20.92;10.48;;;;;;;-145.19;100.00;59999.88;5027643;28;20120;-69
2021/04/15 07:09:53;;;;;;;15.88;10.20;;;;;;;-145.19;100.00;59999.88;5024544;28;20048;-68
2021/04/15 07:12:41;;;;;;;19.67;10.05;;;;;;;-145.19;100.00;59999.88;5028615;28;20047;-68
2021/04/15 07:15:44;;;;;;;13.43;9.82;;;;;;;-145.19;100.00;59999.88;5026261;28;20048;-68
2021/04/15 07:18:42;;;;;;;16.80;10.20;;;;;;;-145.19;100.00;59999.88;5024907;28;20148;-69
2021/04/15 07:21:45;;;;;;;13.25;9.30;;;;;;;-145.19;100.00;59999.88;5031617;28;20048;-69
2021/04/15 07:24:30;;;;;;;13.80;8.82;;;;;;;-145.19;100.00;59999.88;5028502;28;20081;-69
2021/04/15 07:27:28;;;;;;;15.00;8.73;;;;;;;-145.19;100.00;59999.88;5026880;28;20828;-68
2021/04/15 07:30:24;;;;;;;12.68;9.25;;;;;;;-145.19;100.00;59999.88;5022786;28;20080;-69
2021/04/15 07:33:02;;;;;;;12.85;8.15;;;;;;;-145.19;100.00;59999.88;5026648;28;20033;-69
2021/04/15 07:35:41;;;;;;;;;;;;;;;-145.19;100.00;59999.88;5025693;28;20038;-68
2021/04/15 07:38:12;;;;;;;10.40;7.60;;;;;;;-145.19;100.00;59999.88;5044416;28;20421;-68
2021/04/15 07:40:41;;;;;;;10.90;7.40;;;;;;;-145.19;100.00;59999.88;5018791;28;20507;-68
2021/04/15 07:43:16;;;;;;;10.63;7.75;;;;;;;-145.19;100.00;59999.88;5024933;28;20045;-68
2021/04/15 07:45:56;;;;;;;15.15;7.38;;;;;;;-145.19;100.00;59999.88;5028252;28;20774;-68
2021/04/15 07:48:50;;;;;;;15.55;8.20;;;;;;;-145.19;100.00;59999.88;5026407;28;20038;-69
2021/04/15 07:51:58;;;;;;;11.40;7.80;;;;;;;-145.19;100.00;59999.88;5028942;28;20440;-69
2021/04/15 07:55:08;;;;;;;10.82;7.50;;;;;;;-145.19;100.00;59999.88;5025961;28;20049;-68
2021/04/15 07:57:46;;;;;;;15.43;9.18;;;;;;;-145.19;100.00;59999.88;5019883;28;20122;-69
2021/04/15 08:00:12;;;;;;;;;;;;;;;-145.19;100.00;59999.88;5027754;28;20116;-68
2021/04/15 08:03:00;;;;;;;43.97;23.00;;;;;;;-145.19;100.00;59999.88;5025920;28;19944;-68
2021/04/15 08:06:04;;;;;;;14.48;9.27;;;;;;;-145.19;100.00;59999.88;5028964;28;20051;-68
2021/04/15 08:09:12;;;;;;;10.30;7.65;;;;;;;-145.19;100.00;59999.88;5009796;28;20087;-68
2021/04/15 08:11:42;;;;;;;9.93;6.47;;;;;;;-145.19;100.00;59999.88;5014692;28;20054;-69
2021/04/15 08:14:33;;;;;;;11.10;6.53;;;;;;;-145.19;100.00;59999.88;5023935;28;20069;-68
2021/04/15 08:17:26;;;;;;;20.98;13.15;;;;;;;-145.19;100.00;59999.88;5027743;28;20068;-69
2021/04/15 08:20:07;;;;;;;11.55;7.65;;;;;;;-145.19;100.00;59999.88;5021066;28;20111;-68
2021/04/15 08:23:05;;;;;;;10.30;6.57;;;;;;;-145.19;100.00;59999.88;5024417;28;20123;-69
2021/04/15 08:25:46;;;;;;;10.25;7.10;;;;;;;-145.19;100.00;59999.88;5028077;28;20075;-67
2021/04/15 08:28:32;;;;;;;11.93;6.63;;;;;;;-145.19;100.00;59999.88;5025569;28;20066;-69
2021/04/15 08:31:18;;;;;;;10.18;7.55;;;;;;;-145.19;100.00;59999.88;5028628;28;20546;-69
2021/04/15 08:33:52;;;;;;;12.75;7.63;;;;;;;-145.19;100.00;59999.88;5023234;28;20048;-69
2021/04/15 08:36:31;;;;;;;13.30;8.00;;;;;;;-145.19;100.00;59999.88;5027061;28;20520;-69
2021/04/15 08:39:16;;;;;;;;;;;;;;;-145.19;100.00;59999.88;5023101;28;20464;-66
2021/04/15 08:42:17;;;;;;;11.35;7.55;;;;;;;-145.19;100.00;59999.88;5030619;28;19927;-69
2021/04/15 08:45:02;;;;;;;12.30;6.82;;;;;;;-145.19;100.00;59999.88;5019988;28;20054;-69
2021/04/15 08:47:49;;;;;;;9.63;7.35;;;;;;;-145.19;100.00;59999.88;5043503;28;20095;-69
2021/04/15 08:50:35;;;;;;;23.23;15.80;;;;;;;-145.19;100.00;59999.88;5026695;28;20092;-69
2021/04/15 08:53:23;;;;;;;11.00;8.57;;;;;;;-145.19;100.00;59999.88;5028357;28;20037;-67
2021/04/15 08:56:00;;;;;;;12.23;7.03;;;;;;;-145.19;100.00;59999.88;5026727;28;20069;-70
2021/04/15 08:58:49;;;;;;;7.47;5.72;;;;;;;-145.19;100.00;59999.88;5026811;28;20140;-67
2021/04/15 09:01:36;;;;;;;7.90;5.57;;;;;;;-145.19;100.00;59999.88;4999763;28;20071;-67
2021/04/15 09:04:10;;;;;;;11.20;4.78;;;;;;;-145.19;100.00;59999.88;5027298;28;20049;-68
2021/04/15 09:06:41;;;;;;;6.75;4.70;;;;;;;-145.19;100.00;59999.88;5027484;28;20049;-68
2021/04/15 09:09:17;;;;;;;7.32;5.00;;;;;;;-145.19;100.00;59999.88;5026223;28;20049;-68
2021/04/15 09:12:19;;;;;;;8.15;5.72;;;;;;;-145.19;100.00;59999.88;5028221;28;20049;-68
2021/04/15 09:15:01;;;;;;;10.02;5.53;;;;;;;-145.19;100.00;59999.88;5029069;28;20053;-68
2021/04/15 09:17:45;;;;;;;8.60;5.60;;;;;;;-145.19;100.00;59999.88;5021594;28;20040;-68
2021/04/15 09:20:53;;;;;;;9.52;6.00;;;;;;;-145.19;100.00;59999.88;5028494;28;20067;-69
2021/04/15 09:23:45;;;;;;;8.52;6.43;;;;;;;-145.19;100.00;59999.88;5018323;28;20136;-68
2021/04/15 09:26:37;;;;;;;10.38;6.03;;;;;;;-145.19;100.00;59999.88;5025517;28;20061;-69
2021/04/15 09:29:27;;;;;;;9.13;6.20;;;;;;;-145.19;100.00;59999.88;5024875;28;20938;-69
2021/04/15 09:32:06;;;;;;;8.85;5.63;;;;;;;-145.19;100.00;59999.88;5023738;28;20046;-69
2021/04/15 09:35:09;;;;;;;9.90;5.82;;;;;;;-145.19;100.00;59999.88;5026255;28;20595;-66
2021/04/15 09:38:14;;;;;;;10.35;5.57;;;;;;;-145.19;100.00;59999.88;5026640;28;20049;-69
2021/04/15 09:41:11;;;;;;;9.43;6.18;;;;;;;-145.19;100.00;59999.88;5028454;28;20111;-68
2021/04/15 09:43:37;;;;;;;9.57;5.65;;;;;;;-145.19;100.00;59999.88;5026652;28;20037;-69
2021/04/15 09:46:18;;;;;;;12.85;5.53;;;;;;;-145.19;100.00;59999.88;5026479;28;20105;-68
2021/04/15 09:49:03;;;;;;;12.30;5.30;;;;;;;-145.19;100.00;59999.88;5028330;28;20701;-68
2021/04/15 09:52:07;;;;;;;12.13;7.38;;;;;;;-145.19;100.00;59999.88;5031911;28;20488;-69
2021/04/15 09:55:00;;;;;;;8.43;5.00;;;;;;;-145.19;100.00;59999.88;5027830;28;20053;-69
2021/04/15 09:57:43;;;;;;;10.13;5.72;;;;;;;-145.19;100.00;59999.88;5025280;28;20041;-66
2021/04/15 10:00:28;;;;;;;11.25;5.03;;;;;;;-145.19;100.00;59999.88;5029326;28;20065;-67
2021/04/15 10:03:26;;;;;;;6.93;5.13;;;;;;;-145.19;100.00;59999.88;5027364;28;20057;-67
2021/04/15 10:06:18;;;;;;;10.98;6.10;;;;;;;-145.19;100.00;59999.88;5030742;28;20049;-66
2021/04/15 10:08:57;;;;;;;8.15;5.78;;;;;;;-145.19;100.00;59999.88;5026548;28;20065;-67
2021/04/15 10:11:35;;;;;;;6.93;5.10;;;;;;;-145.19;100.00;59999.88;5029892;28;20136;-68
2021/04/15 10:14:18;;;;;;;9.13;6.20;;;;;;;-145.19;100.00;59999.88;5026941;28;20033;-69
2021/04/15 10:17:02;;;;;;;8.77;5.88;;;;;;;-145.19;100.00;59999.88;5030608;28;20505;-68
2021/04/15 10:19:47;;;;;;;6.45;5.10;;;;;;;-145.19;100.00;59999.88;5030281;28;20053;-68
2021/04/15 10:22:16;;;;;;;6.85;4.85;;;;;;;-145.19;100.00;59999.88;5026495;28;20081;-68
2021/04/15 10:25:00;;;;;;;6.50;4.80;;;;;;;-145.19;100.00;59999.88;5033231;28;20072;-68
2021/04/15 10:27:44;;;;;;;8.77;5.32;;;;;;;-145.19;100.00;59999.88;5029680;28;20049;-68
2021/04/15 10:30:39;;;;;;;7.75;5.72;;;;;;;-145.19;100.00;59999.88;5024255;28;20049;-68
2021/04/15 10:33:23;;;;;;;8.02;4.72;;;;;;;-145.19;100.00;59999.88;5040507;28;20057;-70
2021/04/15 10:36:21;;;;;;;9.40;4.75;;;;;;;-145.19;100.00;59999.88;5031665;28;20141;-68
2021/04/15 10:39:32;;;;;;;4.07;3.30;;;;;;;-145.19;100.00;59999.88;5024824;28;20116;-68
2021/04/15 10:42:30;;;;;;;3.38;3.08;;;;;;;-145.19;100.00;59999.88;5011793;28;20058;-67
2021/04/15 10:45:15;;;;;;;4.78;3.58;;;;;;;-145.19;100.00;59999.88;5032871;28;20059;-68
2021/04/15 10:48:00;;;;;;;4.35;3.58;;;;;;;-145.19;100.00;59999.88;5029978;28;20076;-67
2021/04/15 10:50:26;;;;;;;4.75;3.80;;;;;;;-145.19;100.00;59999.88;5029552;28;20042;-66
2021/04/15 10:53:18;;;;;;;5.93;4.68;;;;;;;-145.19;100.00;59999.88;5029130;28;20096;-66
2021/04/15 10:55:48;;;;;;;6.18;4.03;;;;;;;-145.19;100.00;59999.88;5023605;28;20084;-68
2021/04/15 10:58:19;;;;;;;8.40;4.07;;;;;;;-145.19;100.00;59999.88;5029115;28;20038;-67
2021/04/15 11:00:45;;;;;;;4.63;3.53;;;;;;;-145.19;100.00;59999.88;5032745;28;20045;-69
2021/04/15 11:03:24;;;;;;;5.13;3.58;;;;;;;-145.19;100.00;59999.88;5030898;28;20057;-69
2021/04/15 11:05:54;;;;;;;14.77;4.03;;;;;;;-145.19;100.00;59999.88;5030429;28;20391;-66
2021/04/15 11:08:29;;;;;;;5.90;3.80;;;;;;;-145.19;100.00;59999.88;5030141;28;20113;-66
2021/04/15 11:11:08;;;;;;;5.80;4.07;;;;;;;-145.19;100.00;59999.88;5029854;28;20049;-68
2021/04/15 11:13:34;;;;;;;;;;;;;;;-145.19;100.00;59999.88;5030365;28;20053;-65
2021/04/15 11:16:03;;;;;;;6.72;3.75;;;;;;;-145.19;100.00;59999.88;5030506;28;19925;-67
2021/04/15 11:18:33;;;;;;;4.40;3.60;;;;;;;-145.19;100.00;59999.88;5025742;28;20041;-65
2021/04/15 11:21:12;;;;;;;7.00;3.83;;;;;;;-145.19;100.00;59999.88;5027478;28;20041;-67
2021/04/15 11:23:39;;;;;;;5.25;3.95;;;;;;;-145.19;100.00;59999.88;5030701;28;20041;-68
2021/04/15 11:26:16;;;;;;;5.18;3.63;;;;;;;-145.19;100.00;59999.88;5031732;28;20056;-69
2021/04/15 11:28:43;;;;;;;6.88;4.10;;;;;;;-145.19;100.00;59999.88;5028510;28;20049;-70
2021/04/15 11:31:12;;;;;;;4.43;3.63;;;;;;;-145.19;100.00;59999.88;5030794;28;20057;-69
2021/04/15 11:33:47;;;;;;;4.18;3.55;;;;;;;-145.19;100.00;59999.88;5032958;28;20033;-72
2021/04/15 11:36:25;;;;;;;6.45;3.53;;;;;;;-145.19;100.00;59999.88;5043379;28;20085;-69
2021/04/15 11:39:20;;;;;;;6.57;3.20;;;;;;;-145.19;100.00;59999.88;5030325;28;20524;-68
2021/04/15 11:41:47;;;;;;;3.70;3.30;;;;;;;-145.19;100.00;59999.88;5030770;28;20049;-70
2021/04/15 11:44:27;;;;;;;6.10;3.80;;;;;;;-145.19;100.00;59999.88;5029666;28;20068;-70
2021/04/15 11:46:56;;;;;;;6.05;3.47;;;;;;;-145.19;100.00;59999.88;5029835;28;20315;-68
2021/04/15 11:49:33;;;;;;;5.78;3.65;;;;;;;-145.19;100.00;59999.88;5032341;28;20642;-68
2021/04/15 11:52:02;;;;;;;15.80;4.63;;;;;;;-145.19;100.00;59999.88;5031576;28;20504;-69